Time;durP1;ratioP1;P1;durP2;ratioP2;P2;SDS_P1;SDS_P2;PMS_P1;PMS_P2;Temp;Humidity;BMP_temperature;BMP_pressure;BME280_temperature;BME280_humidity;BME280_pressure;Samples;Min_cycle;Max_cycle;Signal;HPM_P1;HPM_P2
2022/11/19 00:01:15;;;;;;;13.25;7.72;;;8.80;99.90;;;;;;5013939;28;20068;-72
2022/11/19 00:03:42;;;;;;;13.68;7.00;;;8.80;99.90;;;;;;5013756;28;20022;-73
2022/11/19 00:06:14;;;;;;;9.43;5.32;;;8.80;99.90;;;;;;5013717;28;20496;-73
2022/11/19 00:08:41;;;;;;;10.25;5.43;;;8.80;99.90;;;;;;5013012;28;20026;-72
2022/11/19 00:11:12;;;;;;;9.65;4.88;;;8.80;99.90;;;;;;5012982;28;20025;-73
2022/11/19 00:13:40;;;;;;;10.30;4.68;;;8.80;99.90;;;;;;4995207;28;20030;-73
2022/11/19 00:16:08;;;;;;;11.07;5.85;;;8.80;99.90;;;;;;4995178;28;20034;-77
2022/11/19 00:18:35;;;;;;;8.40;4.88;;;8.80;99.90;;;;;;5012721;28;20029;-76
2022/11/19 00:21:12;;;;;;;9.88;5.25;;;8.70;99.90;;;;;;5011967;28;20140;-75
2022/11/19 00:23:39;;;;;;;11.15;5.45;;;8.80;99.90;;;;;;5012374;28;20040;-74
2022/11/19 00:26:07;;;;;;;10.10;5.43;;;8.80;99.90;;;;;;4994944;28;20099;-71
2022/11/19 00:28:33;;;;;;;17.27;9.85;;;8.80;99.90;;;;;;5012206;28;20025;-72
2022/11/19 00:31:06;;;;;;;17.27;9.05;;;8.80;99.90;;;;;;5012435;28;20057;-74
2022/11/19 00:33:32;;;;;;;19.90;12.55;;;8.80;99.90;;;;;;4995081;28;20056;-72
2022/11/19 00:35:59;;;;;;;16.40;8.07;;;8.80;99.90;;;;;;4994870;28;20053;-73
2022/11/19 00:38:26;;;;;;;15.98;8.63;;;8.60;99.90;;;;;;5012499;28;20022;-74
2022/11/19 00:40:52;;;;;;;17.30;9.98;;;8.60;99.90;;;;;;5012195;28;20029;-74
2022/11/19 00:46:02;;;;;;;19.42;10.77;;;8.60;99.90;;;;;;5011841;28;20137;-79
2022/11/19 00:48:28;;;;;;;16.00;8.90;;;8.50;99.90;;;;;;4993728;28;20133;-74
2022/11/19 00:50:54;;;;;;;19.05;12.13;;;8.50;99.90;;;;;;4993803;28;20544;-71
2022/11/19 00:53:20;;;;;;;18.05;9.88;;;8.50;99.90;;;;;;5011702;28;20492;-77
2022/11/19 00:55:46;;;;;;;21.58;13.32;;;8.50;99.90;;;;;;4994547;28;20129;-76
2022/11/19 00:58:12;;;;;;;20.75;11.20;;;8.50;99.90;;;;;;4993215;28;20080;-77
2022/11/19 01:00:38;;;;;;;18.95;10.88;;;8.40;99.90;;;;;;5011271;28;20456;-79
2022/11/19 01:03:04;;;;;;;22.65;14.35;;;8.50;99.90;;;;;;5009859;28;20092;-76
2022/11/19 01:05:30;;;;;;;29.88;15.93;;;8.40;99.90;;;;;;5006181;28;20037;-73
2022/11/19 01:07:56;;;;;;;19.10;10.52;;;8.40;99.90;;;;;;4988315;28;20025;-73
2022/11/19 01:10:22;;;;;;;36.38;25.02;;;8.40;99.90;;;;;;5011694;28;20034;-74
2022/11/19 01:15:32;;;;;;;47.00;28.70;;;8.30;99.90;;;;;;4999844;28;20169;-76
2022/11/19 01:17:58;;;;;;;45.22;27.20;;;8.30;99.90;;;;;;5002564;28;20097;-79
2022/11/19 01:20:23;;;;;;;43.35;25.38;;;8.40;99.90;;;;;;5002455;28;20532;-75
2022/11/19 01:22:49;;;;;;;36.60;22.60;;;8.40;99.90;;;;;;4993308;28;20042;-74
2022/11/19 01:25:15;;;;;;;30.20;19.30;;;8.40;99.90;;;;;;5011269;28;20097;-72
2022/11/19 01:27:41;;;;;;;28.92;18.83;;;8.30;99.90;;;;;;4993188;28;20369;-75
2022/11/19 01:30:07;;;;;;;24.52;14.90;;;8.20;99.90;;;;;;5010535;28;20069;-74
2022/11/19 01:32:33;;;;;;;24.77;15.13;;;8.20;99.90;;;;;;4987164;28;20030;-75
2022/11/19 01:34:59;;;;;;;34.33;22.20;;;8.10;99.90;;;;;;5009893;28;20037;-74
2022/11/19 01:37:26;;;;;;;36.88;24.45;;;8.10;99.90;;;;;;5010990;28;20026;-75
2022/11/19 01:39:52;;;;;;;30.08;20.55;;;8.00;99.90;;;;;;5011652;28;20030;-75
2022/11/19 01:45:24;;;;;;;39.17;22.63;;;7.90;99.90;;;;;;5010865;28;20045;-74
2022/11/19 01:47:52;;;;;;;39.42;25.50;;;7.80;99.90;;;;;;5006638;28;20121;-80
2022/11/19 01:50:19;;;;;;;33.03;21.13;;;7.70;99.90;;;;;;5004380;28;20388;-72
2022/11/19 01:52:45;;;;;;;28.38;18.10;;;7.80;99.90;;;;;;5000136;28;20033;-78
2022/11/19 01:55:11;;;;;;;32.53;18.55;;;7.80;99.90;;;;;;5010732;28;20124;-74
2022/11/19 01:57:39;;;;;;;33.72;19.20;;;7.80;99.90;;;;;;5011010;28;20034;-71
2022/11/19 02:00:06;;;;;;;39.55;21.35;;;7.80;99.90;;;;;;5011121;28;20396;-76
2022/11/19 02:02:33;;;;;;;25.10;15.55;;;7.80;99.90;;;;;;5005928;28;20021;-74
2022/11/19 02:05:00;;;;;;;23.08;13.52;;;7.80;99.90;;;;;;5009858;28;20017;-79
2022/11/19 02:07:30;;;;;;;32.22;19.02;;;7.90;99.90;;;;;;4992850;28;20041;-74
2022/11/19 02:09:59;;;;;;;34.60;19.42;;;7.80;99.90;;;;;;4976088;28;20046;-74
2022/11/19 02:12:35;;;;;;;28.30;16.73;;;7.80;99.90;;;;;;5011082;28;20026;-74
2022/11/19 02:15:14;;;;;;;27.55;17.92;;;7.80;99.90;;;;;;5015045;28;20056;-76
2022/11/19 02:17:45;;;;;;;38.45;22.73;;;7.70;99.90;;;;;;5014930;28;20052;-75
2022/11/19 02:20:29;;;;;;;29.55;17.70;;;7.70;99.90;;;;;;5014852;28;20175;-72
2022/11/19 02:23:23;;;;;;;27.52;19.10;;;7.70;99.90;;;;;;5014904;28;20025;-73
2022/11/19 02:26:12;;;;;;;31.63;19.05;;;7.60;99.90;;;;;;4996203;28;20053;-73
2022/11/19 02:28:45;;;;;;;23.67;15.73;;;7.50;99.90;;;;;;4915882;29;20072;-78
2022/11/19 02:31:12;;;;;;;31.05;18.15;;;7.50;99.90;;;;;;4916538;29;20050;-73
2022/11/19 02:33:47;;;;;;;26.30;16.67;;;7.50;99.90;;;;;;4898475;29;20041;-76
2022/11/19 02:36:26;;;;;;;30.85;18.30;;;7.50;99.90;;;;;;4915580;29;20127;-73
2022/11/19 02:39:13;;;;;;;25.30;15.85;;;7.50;99.90;;;;;;4915419;29;20111;-72
2022/11/19 02:41:58;;;;;;;26.70;17.52;;;7.50;99.90;;;;;;4915753;29;20163;-76
2022/11/19 02:47:21;;;;;;;28.15;17.23;;;7.50;99.90;;;;;;4915988;29;20036;-76
2022/11/19 02:49:50;;;;;;;37.95;22.00;;;7.50;99.90;;;;;;4899512;29;20032;-72
2022/11/19 02:52:17;;;;;;;44.97;27.48;;;7.50;99.90;;;;;;4915774;29;20043;-74
2022/11/19 02:54:43;;;;;;;47.63;30.73;;;7.50;99.90;;;;;;4915133;29;20052;-71
2022/11/19 02:57:11;;;;;;;35.65;21.55;;;7.50;99.90;;;;;;4915554;29;20052;-74
2022/11/19 03:05:38;;;;;;;33.40;20.30;;;7.40;99.90;;;;;;4943540;28;20038;-73
2022/11/19 03:08:04;;;;;;;34.88;21.02;;;7.50;99.90;;;;;;4955933;28;20113;-73
2022/11/19 03:10:58;;;;;;;30.85;17.75;;;7.50;99.90;;;;;;4973664;28;20035;-72
2022/11/19 03:19:29;;;;;;;45.03;25.55;;;7.50;99.90;;;;;;4973532;28;20053;-71
2022/11/19 03:21:59;;;;;;;35.13;21.50;;;7.50;99.90;;;;;;4971396;28;20043;-72
2022/11/19 03:24:49;;;;;;;37.15;24.10;;;7.50;99.90;;;;;;4973502;28;20038;-74
2022/11/19 03:27:22;;;;;;;32.60;21.27;;;7.50;99.90;;;;;;4971989;28;20038;-72
2022/11/19 03:29:53;;;;;;;27.17;18.20;;;7.50;99.90;;;;;;4955897;28;20034;-71
2022/11/19 03:32:25;;;;;;;30.13;18.75;;;7.50;99.90;;;;;;4972988;28;20073;-72
2022/11/19 03:34:56;;;;;;;51.13;24.55;;;7.60;99.90;;;;;;4972813;28;20038;-72
2022/11/19 03:37:23;;;;;;;47.17;24.40;;;7.60;99.90;;;;;;4975122;28;20034;-71
2022/11/19 03:39:52;;;;;;;43.22;21.60;;;7.70;99.90;;;;;;4955804;28;20023;-73
2022/11/19 03:42:20;;;;;;;32.45;17.13;;;7.60;99.90;;;;;;4959710;28;20034;-72
2022/11/19 03:44:53;;;;;;;23.40;15.05;;;7.60;99.90;;;;;;4973036;28;20034;-71
2022/11/19 03:47:34;;;;;;;30.38;16.67;;;7.70;99.90;;;;;;4955248;28;20383;-76
2022/11/19 03:50:29;;;;;;;26.35;15.00;;;7.60;99.90;;;;;;4972823;28;20035;-72
2022/11/19 03:52:57;;;;;;;26.05;15.07;;;7.60;99.90;;;;;;4971480;28;20571;-72
2022/11/19 03:55:38;;;;;;;26.70;13.52;;;7.70;99.90;;;;;;4970967;28;20486;-73
2022/11/19 03:58:06;;;;;;;32.22;15.23;;;7.70;99.90;;;;;;4985744;28;20035;-74
2022/11/19 04:00:32;;;;;;;39.03;16.65;;;7.70;99.90;;;;;;4992075;28;20025;-71
2022/11/19 04:02:58;;;;;;;33.25;16.77;;;7.80;99.90;;;;;;4992517;28;20070;-71
2022/11/19 04:05:24;;;;;;;36.03;17.95;;;7.80;99.90;;;;;;4996241;28;20026;-73
2022/11/19 04:07:50;;;;;;;29.42;16.17;;;7.80;99.90;;;;;;4992009;28;20111;-73
2022/11/19 04:10:16;;;;;;;41.88;18.35;;;7.80;99.90;;;;;;4991974;28;20088;-72
2022/11/19 04:12:42;;;;;;;46.58;18.02;;;7.80;99.90;;;;;;4991835;28;20480;-73
2022/11/19 04:15:12;;;;;;;40.05;19.65;;;7.80;99.90;;;;;;4995916;28;20035;-71
2022/11/19 04:17:38;;;;;;;52.45;30.38;;;7.80;99.90;;;;;;4991502;28;20499;-71
2022/11/19 04:20:05;;;;;;;51.33;27.17;;;7.70;99.90;;;;;;4991644;28;20030;-74
2022/11/19 04:22:31;;;;;;;39.90;18.58;;;7.70;99.90;;;;;;4991734;28;20388;-73
2022/11/19 04:24:57;;;;;;;36.00;19.67;;;7.70;99.90;;;;;;4973548;28;20035;-72
2022/11/19 04:27:22;;;;;;;31.13;16.02;;;7.60;99.90;;;;;;4973929;28;20027;-75
2022/11/19 04:29:48;;;;;;;31.92;16.52;;;7.60;99.90;;;;;;4998038;28;20037;-71
2022/11/19 04:32:14;;;;;;;26.42;15.68;;;7.60;99.90;;;;;;4974437;28;20051;-71
2022/11/19 04:34:40;;;;;;;22.33;13.32;;;7.50;99.90;;;;;;4990802;28;20521;-71
2022/11/19 04:37:06;;;;;;;27.25;15.13;;;7.50;99.90;;;;;;4996672;28;20041;-74
2022/11/19 04:39:32;;;;;;;32.97;20.02;;;7.60;99.90;;;;;;4995314;28;20029;-72
2022/11/19 04:41:57;;;;;;;31.88;19.35;;;7.60;99.90;;;;;;4973966;28;20473;-70
2022/11/19 04:44:23;;;;;;;36.75;18.65;;;7.50;99.90;;;;;;4974435;28;20019;-71
2022/11/19 04:46:49;;;;;;;45.42;25.08;;;7.50;99.90;;;;;;4973906;28;20933;-74
2022/11/19 04:49:16;;;;;;;39.72;20.95;;;7.50;99.90;;;;;;4991571;28;20416;-72
2022/11/19 04:51:42;;;;;;;42.72;25.15;;;7.50;99.90;;;;;;4991118;28;20031;-71
2022/11/19 04:54:08;;;;;;;32.95;17.25;;;7.60;99.90;;;;;;4990653;28;20121;-71
2022/11/19 04:56:35;;;;;;;29.42;19.48;;;7.60;99.90;;;;;;4973423;28;20053;-71
2022/11/19 04:59:00;;;;;;;34.08;21.83;;;7.70;99.90;;;;;;4991059;28;20018;-71
2022/11/19 05:01:26;;;;;;;30.85;19.58;;;7.60;99.90;;;;;;4990890;28;20030;-70
2022/11/19 05:03:52;;;;;;;28.55;18.73;;;7.60;99.90;;;;;;4990345;28;20050;-71
2022/11/19 05:06:18;;;;;;;32.50;18.67;;;7.60;99.90;;;;;;4972750;28;20129;-72
2022/11/19 05:08:44;;;;;;;23.83;15.10;;;7.70;99.90;;;;;;4990571;28;20590;-71
2022/11/19 05:11:10;;;;;;;26.27;12.05;;;7.60;99.90;;;;;;4991094;28;20485;-71
2022/11/19 05:13:36;;;;;;;19.83;13.02;;;7.70;99.90;;;;;;4990564;28;20026;-71
2022/11/19 05:16:01;;;;;;;20.55;12.98;;;7.70;99.90;;;;;;4972720;28;20048;-70
2022/11/19 05:18:27;;;;;;;31.23;22.00;;;7.70;99.90;;;;;;4972711;28;20113;-71
2022/11/19 05:20:53;;;;;;;35.90;23.10;;;7.70;99.90;;;;;;4990622;28;20538;-71
2022/11/19 05:23:19;;;;;;;40.45;25.05;;;7.60;99.90;;;;;;4973279;28;20026;-71
2022/11/19 05:25:46;;;;;;;41.45;23.77;;;7.60;99.90;;;;;;4990408;28;20113;-71
2022/11/19 05:28:12;;;;;;;32.28;21.08;;;7.50;99.90;;;;;;4993595;28;20101;-71
2022/11/19 05:30:38;;;;;;;42.63;28.27;;;7.30;99.90;;;;;;4993088;28;20108;-71
2022/11/19 05:33:04;;;;;;;28.25;15.77;;;7.20;99.90;;;;;;4990360;28;20113;-73
2022/11/19 05:35:30;;;;;;;27.13;16.25;;;7.20;99.90;;;;;;4992610;28;20030;-72
2022/11/19 05:37:56;;;;;;;27.88;14.43;;;7.20;99.90;;;;;;4991442;28;20030;-72
2022/11/19 05:40:22;;;;;;;27.42;14.85;;;7.20;99.90;;;;;;4992159;28;20038;-70
2022/11/19 05:42:48;;;;;;;22.25;14.40;;;7.30;99.90;;;;;;4990211;28;20030;-71
2022/11/19 05:45:13;;;;;;;26.60;14.68;;;7.30;99.90;;;;;;4989385;28;20109;-72
2022/11/19 05:47:39;;;;;;;22.15;14.45;;;7.40;99.90;;;;;;5001893;28;20026;-71
2022/11/19 05:50:06;;;;;;;21.42;13.65;;;7.50;99.90;;;;;;5009521;28;20113;-70
2022/11/19 05:52:32;;;;;;;22.13;12.50;;;7.50;99.90;;;;;;4994311;28;20018;-69
2022/11/19 05:54:57;;;;;;;18.00;11.40;;;7.50;99.90;;;;;;4999761;28;20054;-70
2022/11/19 05:57:23;;;;;;;20.10;12.63;;;7.50;99.90;;;;;;4990827;28;20489;-69
2022/11/19 05:59:49;;;;;;;20.48;11.73;;;7.60;99.90;;;;;;5011020;28;20060;-69
2022/11/19 06:02:15;;;;;;;27.33;13.07;;;7.70;99.90;;;;;;5010832;28;20110;-70
2022/11/19 06:04:41;;;;;;;19.92;13.43;;;7.70;99.90;;;;;;5011010;28;20022;-69
2022/11/19 06:07:06;;;;;;;26.70;14.55;;;7.80;99.90;;;;;;5010764;28;20022;-68
2022/11/19 06:09:32;;;;;;;51.05;35.63;;;7.70;99.90;;;;;;5010751;28;20044;-72
2022/11/19 06:11:58;;;;;;;25.00;15.65;;;7.80;99.90;;;;;;5003058;28;20388;-72
2022/11/19 06:14:25;;;;;;;26.73;15.45;;;7.80;99.90;;;;;;4973935;28;20042;-70
2022/11/19 06:16:55;;;;;;;39.80;20.10;;;7.90;99.90;;;;;;4993343;28;20481;-69
2022/11/19 06:19:21;;;;;;;36.95;18.60;;;7.90;99.90;;;;;;5008094;28;20381;-71
2022/11/19 06:21:47;;;;;;;38.88;25.05;;;7.90;99.90;;;;;;5010605;28;20156;-69
2022/11/19 06:24:14;;;;;;;32.70;16.92;;;8.00;99.90;;;;;;5000417;28;20495;-70
2022/11/19 06:26:40;;;;;;;25.48;14.40;;;8.00;99.90;;;;;;5006457;28;20030;-69
2022/11/19 06:29:07;;;;;;;24.63;15.15;;;8.00;99.90;;;;;;5008019;28;20480;-69
2022/11/19 06:31:33;;;;;;;36.20;22.10;;;8.10;99.90;;;;;;5010444;28;20018;-76
2022/11/19 06:33:59;;;;;;;31.20;19.42;;;8.10;99.90;;;;;;5010640;28;20120;-71
2022/11/19 06:36:25;;;;;;;34.08;19.40;;;8.10;99.90;;;;;;5010552;28;20073;-77
2022/11/19 06:38:52;;;;;;;36.65;21.25;;;8.20;99.90;;;;;;5010749;28;20078;-73
2022/11/19 06:41:18;;;;;;;41.20;21.83;;;8.10;99.90;;;;;;5010353;28;20025;-71
2022/11/19 06:43:44;;;;;;;28.67;17.42;;;8.20;99.90;;;;;;5009921;28;20034;-69
2022/11/19 06:46:11;;;;;;;31.88;19.60;;;8.20;99.90;;;;;;5010905;28;20065;-70
2022/11/19 06:48:37;;;;;;;30.48;18.70;;;8.20;99.90;;;;;;5010555;28;20030;-74
2022/11/19 06:51:03;;;;;;;33.33;20.95;;;8.20;99.90;;;;;;5010179;28;20092;-76
2022/11/19 06:53:29;;;;;;;29.73;18.88;;;8.20;99.90;;;;;;5008903;28;20396;-73
2022/11/19 06:55:57;;;;;;;42.13;20.70;;;8.30;99.90;;;;;;5003984;28;20044;-74
2022/11/19 06:58:23;;;;;;;30.65;19.27;;;8.30;99.90;;;;;;4996441;28;20046;-71
2022/11/19 07:00:49;;;;;;;26.95;18.27;;;8.30;99.90;;;;;;5014005;28;20022;-72
2022/11/19 07:03:15;;;;;;;26.95;16.27;;;8.30;99.90;;;;;;4996348;28;20108;-70
2022/11/19 07:05:41;;;;;;;21.70;14.02;;;8.40;99.90;;;;;;5013735;28;20494;-73
2022/11/19 07:08:07;;;;;;;26.33;18.58;;;8.40;99.90;;;;;;5013484;28;20030;-71
2022/11/19 07:10:33;;;;;;;29.10;20.50;;;8.40;99.90;;;;;;4994210;28;20393;-75
2022/11/19 07:12:59;;;;;;;34.72;18.50;;;8.50;99.90;;;;;;5014025;28;20033;-71
2022/11/19 07:15:25;;;;;;;18.95;12.43;;;8.50;99.90;;;;;;5013205;28;20077;-72
2022/11/19 07:17:51;;;;;;;22.00;12.10;;;8.50;99.90;;;;;;5013565;28;20110;-69
2022/11/19 07:20:17;;;;;;;20.85;12.63;;;8.50;99.90;;;;;;5013754;28;20057;-72
2022/11/19 07:22:43;;;;;;;23.23;11.95;;;8.50;99.90;;;;;;4989667;28;20061;-71
2022/11/19 07:25:12;;;;;;;18.88;11.65;;;8.50;99.90;;;;;;4987199;28;20041;-72
2022/11/19 07:27:47;;;;;;;19.15;11.70;;;8.50;99.90;;;;;;4995727;28;20041;-71
2022/11/19 07:30:15;;;;;;;18.45;11.82;;;8.50;99.90;;;;;;5013308;28;20477;-71
2022/11/19 07:32:42;;;;;;;23.80;13.52;;;8.60;99.90;;;;;;5013330;28;20532;-71
2022/11/19 07:35:08;;;;;;;21.73;14.52;;;8.60;99.90;;;;;;5013383;28;20052;-74
2022/11/19 07:37:35;;;;;;;27.92;13.88;;;8.60;99.90;;;;;;5013068;28;20026;-70
2022/11/19 07:40:02;;;;;;;18.23;11.38;;;8.60;99.90;;;;;;5013070;28;20549;-73
2022/11/19 07:45:13;;;;;;;19.75;11.70;;;8.70;99.90;;;;;;5008335;28;20559;-70
2022/11/19 07:47:39;;;;;;;16.83;9.88;;;8.70;99.90;;;;;;5012671;28;20109;-71
2022/11/19 07:50:08;;;;;;;19.65;12.45;;;8.70;99.90;;;;;;5012734;28;20065;-72
2022/11/19 07:52:34;;;;;;;17.35;9.52;;;8.70;99.90;;;;;;5013252;28;20022;-78
2022/11/19 07:55:00;;;;;;;15.60;8.48;;;8.70;99.90;;;;;;5012201;28;20084;-73
2022/11/19 07:57:26;;;;;;;15.25;10.07;;;8.70;99.90;;;;;;5006866;28;20040;-70
2022/11/19 07:59:51;;;;;;;26.05;12.25;;;8.80;99.90;;;;;;5012287;28;20022;-71
2022/11/19 08:02:17;;;;;;;31.00;19.88;;;8.80;99.90;;;;;;5011431;28;20511;-71
2022/11/19 08:04:43;;;;;;;32.40;20.30;;;8.90;99.90;;;;;;5012433;28;20467;-71
2022/11/19 08:07:09;;;;;;;26.27;17.25;;;8.90;99.90;;;;;;4983983;28;20022;-71
2022/11/19 08:09:35;;;;;;;21.08;12.18;;;8.90;99.90;;;;;;5010668;28;20465;-71
2022/11/19 08:12:00;;;;;;;21.27;12.70;;;8.90;99.90;;;;;;5012100;28;20034;-71
2022/11/19 08:14:27;;;;;;;22.48;13.07;;;9.00;99.90;;;;;;5011635;28;20044;-71
2022/11/19 08:19:38;;;;;;;23.65;13.90;;;9.00;99.90;;;;;;4999040;28;20034;-77
2022/11/19 08:22:04;;;;;;;25.00;12.07;;;9.10;99.90;;;;;;4983435;28;20030;-72
2022/11/19 08:24:30;;;;;;;21.38;11.48;;;9.10;99.90;;;;;;5012149;28;20037;-71
2022/11/19 08:26:56;;;;;;;25.35;12.82;;;9.20;99.90;;;;;;4994294;28;20392;-71
2022/11/19 08:29:22;;;;;;;25.77;13.32;;;9.10;99.90;;;;;;5011555;28;20035;-74
2022/11/19 08:31:49;;;;;;;20.48;10.63;;;9.20;99.90;;;;;;5011318;28;20030;-72
2022/11/19 08:34:16;;;;;;;18.83;9.32;;;9.20;99.90;;;;;;5008243;28;20034;-74
2022/11/19 08:36:42;;;;;;;19.15;9.68;;;9.20;99.90;;;;;;5002999;28;20041;-74
2022/11/19 08:39:08;;;;;;;21.17;11.15;;;9.20;99.90;;;;;;4996062;28;20058;-72
2022/11/19 08:44:19;;;;;;;14.52;7.95;;;9.20;99.90;;;;;;5011928;28;20553;-72
2022/11/19 08:46:45;;;;;;;20.25;8.60;;;9.30;99.90;;;;;;4992467;28;20041;-73
2022/11/19 08:49:11;;;;;;;17.30;9.98;;;9.30;99.90;;;;;;5008089;28;20492;-73
2022/11/19 08:51:37;;;;;;;18.30;10.35;;;9.30;99.90;;;;;;5011426;28;20440;-74
2022/11/19 08:54:03;;;;;;;22.77;11.98;;;9.40;99.90;;;;;;5011941;28;20046;-73
2022/11/19 08:56:29;;;;;;;19.77;10.50;;;9.40;99.90;;;;;;5009882;28;20053;-71
2022/11/19 08:58:55;;;;;;;17.40;9.27;;;9.40;99.90;;;;;;4990119;28;20100;-72
2022/11/19 09:01:21;;;;;;;16.30;9.85;;;9.30;99.90;;;;;;5008590;28;20021;-78
2022/11/19 09:03:47;;;;;;;16.88;8.25;;;9.30;99.90;;;;;;5011721;28;20076;-72
2022/11/19 09:06:13;;;;;;;13.27;7.25;;;9.30;99.90;;;;;;5009730;28;20026;-72
2022/11/19 09:08:40;;;;;;;18.30;9.70;;;9.20;99.90;;;;;;4990260;28;20050;-74
2022/11/19 09:11:11;;;;;;;21.80;13.50;;;9.30;99.90;;;;;;5011805;28;20034;-76
2022/11/19 09:13:37;;;;;;;17.33;9.30;;;9.30;99.90;;;;;;5011230;28;20037;-72
2022/11/19 09:16:04;;;;;;;15.65;7.90;;;9.40;99.90;;;;;;5010829;28;20477;-72
2022/11/19 09:18:30;;;;;;;12.95;7.40;;;9.40;99.90;;;;;;4988027;28;20393;-75
2022/11/19 09:20:57;;;;;;;12.13;7.45;;;9.40;99.90;;;;;;5006574;28;20030;-74
2022/11/19 09:23:24;;;;;;;11.32;5.85;;;9.50;99.90;;;;;;4990209;28;20045;-71
2022/11/19 09:25:59;;;;;;;15.00;8.15;;;9.50;99.90;;;;;;4993286;28;20041;-73
2022/11/19 09:28:26;;;;;;;11.32;6.50;;;9.50;99.90;;;;;;5010540;28;20423;-72
2022/11/19 09:31:01;;;;;;;17.38;7.60;;;9.40;99.90;;;;;;5009662;28;20079;-73
2022/11/19 09:33:29;;;;;;;12.45;5.90;;;9.50;99.90;;;;;;5010304;28;20030;-75
2022/11/19 09:35:55;;;;;;;11.52;6.28;;;9.60;99.90;;;;;;4991498;28;20038;-71
2022/11/19 09:38:21;;;;;;;9.32;5.50;;;9.60;99.90;;;;;;4986742;28;20054;-74
2022/11/19 09:40:50;;;;;;;12.52;7.35;;;9.60;99.90;;;;;;5011087;28;20056;-73
2022/11/19 09:43:40;;;;;;;8.13;5.15;;;9.60;99.90;;;;;;5010676;28;20065;-74
2022/11/19 09:46:06;;;;;;;16.00;6.75;;;9.50;99.90;;;;;;4992941;28;20147;-72
2022/11/19 09:48:36;;;;;;;12.15;6.68;;;9.50;99.90;;;;;;5010474;28;20014;-73
2022/11/19 09:51:28;;;;;;;11.45;6.03;;;9.60;99.90;;;;;;5010437;28;20064;-71
2022/11/19 09:54:06;;;;;;;10.90;6.03;;;9.60;99.90;;;;;;4990770;28;20050;-72
2022/11/19 09:56:41;;;;;;;14.60;7.80;;;9.50;99.90;;;;;;5010672;28;20037;-73
2022/11/19 09:59:15;;;;;;;12.50;6.40;;;9.40;99.90;;;;;;5010618;28;20057;-73
2022/11/19 10:01:41;;;;;;;14.73;7.32;;;9.50;99.90;;;;;;5009628;28;20026;-73
2022/11/19 10:04:09;;;;;;;11.80;7.45;;;9.50;99.90;;;;;;5010790;28;20044;-73
2022/11/19 10:06:45;;;;;;;14.57;7.28;;;9.60;99.90;;;;;;5011160;28;20030;-73
2022/11/19 10:09:43;;;;;;;18.60;6.85;;;9.60;99.90;;;;;;5010329;28;20532;-72
2022/11/19 10:12:39;;;;;;;15.00;7.80;;;9.60;99.90;;;;;;4951822;28;20469;-72
2022/11/19 10:15:17;;;;;;;14.75;7.88;;;9.60;99.90;;;;;;4961731;28;20409;-72
2022/11/19 10:18:08;;;;;;;14.68;7.75;;;9.60;99.90;;;;;;4966721;28;20027;-71
2022/11/19 10:20:57;;;;;;;12.93;6.40;;;9.60;99.90;;;;;;4960496;28;20416;-74
2022/11/19 10:23:41;;;;;;;9.82;5.25;;;9.60;99.90;;;;;;4962991;28;20035;-74
2022/11/19 10:26:13;;;;;;;10.73;5.72;;;9.60;99.90;;;;;;4969448;28;20047;-72
2022/11/19 10:28:40;;;;;;;13.52;7.60;;;9.60;99.90;;;;;;4968601;28;20090;-73
2022/11/19 10:31:18;;;;;;;11.85;6.78;;;9.60;99.90;;;;;;4962711;28;20031;-76
2022/11/19 10:34:05;;;;;;;15.18;7.97;;;9.60;99.90;;;;;;4973162;28;20035;-72
2022/11/19 10:36:42;;;;;;;12.55;6.28;;;9.60;99.90;;;;;;4972555;28;20563;-72
2022/11/19 10:39:27;;;;;;;16.58;7.93;;;9.50;99.90;;;;;;4949286;28;20173;-73
2022/11/19 10:42:18;;;;;;;15.55;8.82;;;9.50;99.90;;;;;;4964919;28;20630;-77
2022/11/19 10:45:05;;;;;;;19.20;11.95;;;9.50;99.90;;;;;;4948407;28;20047;-74
2022/11/19 10:47:46;;;;;;;13.50;8.75;;;9.50;99.90;;;;;;4967637;28;20074;-73
2022/11/19 10:50:39;;;;;;;13.55;7.50;;;9.50;99.90;;;;;;5014181;28;20108;-74
2022/11/19 10:53:14;;;;;;;10.43;5.55;;;9.60;99.90;;;;;;5009893;28;20042;-75
2022/11/19 10:55:50;;;;;;;11.20;6.72;;;9.60;99.90;;;;;;4996792;28;20099;-74
2022/11/19 10:58:28;;;;;;;16.17;9.45;;;9.70;99.90;;;;;;4996696;28;20105;-74
2022/11/19 11:00:55;;;;;;;18.73;10.63;;;9.70;99.90;;;;;;4996835;28;20112;-74
2022/11/19 11:03:32;;;;;;;18.65;10.48;;;9.70;99.90;;;;;;5006840;28;20049;-74
2022/11/19 11:06:05;;;;;;;13.70;6.28;;;9.80;99.90;;;;;;5010238;28;20096;-74
2022/11/19 11:08:32;;;;;;;15.50;8.32;;;9.90;99.90;;;;;;4993970;28;20026;-74
2022/11/19 11:10:59;;;;;;;15.05;8.52;;;9.90;99.90;;;;;;5008350;28;20635;-75
2022/11/19 11:16:35;;;;;;;22.13;13.05;;;9.90;99.90;;;;;;4979664;28;20081;-76
2022/11/19 11:19:01;;;;;;;17.42;11.02;;;9.90;99.90;;;;;;4986613;28;20062;-80
2022/11/19 11:21:34;;;;;;;15.82;9.77;;;9.80;99.90;;;;;;5000557;23;20050;-74
2022/11/19 11:24:04;;;;;;;15.38;8.52;;;9.90;99.90;;;;;;5011168;28;20064;-75
2022/11/19 11:26:32;;;;;;;13.93;7.35;;;9.80;99.90;;;;;;4995924;28;20028;-74
2022/11/19 11:29:33;;;;;;;15.63;9.40;;;9.90;99.90;;;;;;5013083;28;20073;-74
2022/11/19 11:32:38;;;;;;;13.68;9.38;;;10.00;99.90;;;;;;5008623;28;20038;-75
2022/11/19 11:35:19;;;;;;;17.35;11.15;;;9.90;99.90;;;;;;4992934;28;20022;-78
2022/11/19 11:37:46;;;;;;;15.45;9.25;;;9.90;99.90;;;;;;4992828;28;20037;-75
2022/11/19 11:40:21;;;;;;;24.00;12.52;;;9.90;99.90;;;;;;5004961;28;20022;-79
2022/11/19 11:42:49;;;;;;;15.43;9.10;;;9.90;99.90;;;;;;5007751;28;20030;-77
2022/11/19 11:45:32;;;;;;;22.40;13.02;;;9.90;99.90;;;;;;5007619;28;20014;-77
2022/11/19 11:48:06;;;;;;;22.77;13.85;;;9.90;99.90;;;;;;5012189;28;20137;-74
2022/11/19 11:50:33;;;;;;;25.30;14.10;;;9.90;99.90;;;;;;5010336;28;20026;-75
2022/11/19 11:53:07;;;;;;;22.80;13.13;;;9.90;99.90;;;;;;5000474;28;20515;-74
2022/11/19 11:55:33;;;;;;;25.15;14.50;;;9.90;99.90;;;;;;5002444;28;20042;-75
2022/11/19 11:58:05;;;;;;;20.27;12.90;;;9.90;99.90;;;;;;5005615;28;20038;-75
2022/11/19 12:00:36;;;;;;;20.92;12.82;;;9.90;99.90;;;;;;4999654;28;20062;-75
2022/11/19 12:03:12;;;;;;;20.42;12.50;;;9.90;99.90;;;;;;5000433;28;20038;-74
2022/11/19 12:06:00;;;;;;;18.23;11.00;;;9.90;99.90;;;;;;4993464;28;20034;-74
2022/11/19 12:08:56;;;;;;;19.58;12.98;;;9.90;99.90;;;;;;4999658;28;20034;-74
2022/11/19 12:11:25;;;;;;;21.25;12.65;;;10.00;99.90;;;;;;4993361;28;20054;-74
2022/11/19 12:14:05;;;;;;;20.15;12.63;;;10.00;99.90;;;;;;5005006;28;20025;-74
2022/11/19 12:16:43;;;;;;;18.52;11.75;;;10.00;99.90;;;;;;5003291;28;20121;-76
2022/11/19 12:20:02;;;;;;;19.65;12.48;;;10.00;99.90;;;;;;4992936;28;20031;-77
2022/11/19 12:22:45;;;;;;;21.60;13.80;;;10.10;99.90;;;;;;4933108;29;20056;-78
2022/11/19 12:25:39;;;;;;;21.65;12.50;;;10.10;99.90;;;;;;4916628;29;20126;-75
2022/11/19 12:28:26;;;;;;;21.38;12.68;;;10.10;99.90;;;;;;4929176;29;20055;-78
2022/11/19 12:31:03;;;;;;;23.33;15.07;;;10.10;99.90;;;;;;4941470;28;20031;-76
2022/11/19 12:33:44;;;;;;;23.63;15.85;;;10.10;99.90;;;;;;4933066;29;20062;-75
2022/11/19 12:36:37;;;;;;;19.88;14.48;;;10.10;99.90;;;;;;4932959;29;20044;-76
2022/11/19 12:39:22;;;;;;;24.75;15.05;;;10.10;99.90;;;;;;4933287;29;20050;-74
2022/11/19 12:42:17;;;;;;;27.35;16.65;;;10.10;99.90;;;;;;4933809;29;20024;-76
2022/11/19 12:44:53;;;;;;;29.67;18.30;;;10.20;99.90;;;;;;4929544;29;20028;-76
2022/11/19 12:47:22;;;;;;;27.08;15.98;;;10.10;99.90;;;;;;4924187;29;20542;-77
2022/11/19 12:49:56;;;;;;;26.67;16.50;;;10.10;99.90;;;;;;4932705;29;20031;-75
2022/11/19 12:52:28;;;;;;;23.48;16.45;;;10.10;99.90;;;;;;4933688;29;20031;-77
2022/11/19 12:55:01;;;;;;;26.83;14.68;;;10.10;99.90;;;;;;4932800;29;20486;-79
2022/11/19 12:57:47;;;;;;;;;;;10.20;99.90;;;;;;4973761;28;20073;-80
2022/11/19 13:00:21;;;;;;;21.48;14.48;;;10.10;99.90;;;;;;4973820;28;20713;-77
2022/11/19 13:03:10;;;;;;;24.48;15.60;;;10.20;99.90;;;;;;4973397;28;20386;-77
2022/11/19 13:05:59;;;;;;;22.27;15.45;;;10.10;99.90;;;;;;4970387;28;20086;-81
2022/11/19 13:08:38;;;;;;;21.60;14.73;;;10.20;99.90;;;;;;4987036;28;20040;-76
2022/11/19 13:11:13;;;;;;;26.02;16.48;;;10.20;99.90;;;;;;4980658;28;20062;-75
2022/11/19 13:13:46;;;;;;;22.60;16.08;;;10.20;99.90;;;;;;4977229;28;20027;-77
2022/11/19 13:16:18;;;;;;;27.83;18.10;;;10.20;99.90;;;;;;4980348;28;20034;-75
2022/11/19 13:18:48;;;;;;;26.15;16.73;;;10.20;99.90;;;;;;4975170;28;20054;-74
2022/11/19 13:21:22;;;;;;;23.10;15.82;;;10.30;99.90;;;;;;4967331;28;20065;-74
2022/11/19 13:23:49;;;;;;;32.08;17.10;;;10.30;99.90;;;;;;4971438;28;20030;-76
2022/11/19 13:26:19;;;;;;;22.25;13.82;;;10.20;99.90;;;;;;4983354;28;20034;-74
2022/11/19 13:29:24;;;;;;;21.42;14.88;;;10.20;99.90;;;;;;4996030;28;20473;-76
2022/11/19 13:31:55;;;;;;;21.75;14.48;;;10.30;99.90;;;;;;4991738;28;20374;-75